sensor_id;sensor_type;location;lat;lon;timestamp;P1;durP1;ratioP1;P2;durP2;ratioP2
10517;SDS011;5307;42.548;22.968;2022-12-05T00:01:13;29.80;;;14.52;;
10517;SDS011;5307;42.548;22.968;2022-12-05T00:03:43;25.27;;;13.65;;
10517;SDS011;5307;42.548;22.968;2022-12-05T00:06:10;26.42;;;14.48;;
10517;SDS011;5307;42.548;22.968;2022-12-05T00:13:48;28.98;;;13.30;;
10517;SDS011;5307;42.548;22.968;2022-12-05T00:16:16;27.27;;;13.75;;
10517;SDS011;5307;42.548;22.968;2022-12-05T00:18:45;27.42;;;13.95;;
10517;SDS011;5307;42.548;22.968;2022-12-05T00:21:13;32.30;;;15.52;;
10517;SDS011;5307;42.548;22.968;2022-12-05T00:23:41;30.52;;;16.35;;
10517;SDS011;5307;42.548;22.968;2022-12-05T00:26:08;32.50;;;17.98;;
10517;SDS011;5307;42.548;22.968;2022-12-05T00:28:36;34.58;;;19.17;;
10517;SDS011;5307;42.548;22.968;2022-12-05T00:31:05;29.55;;;16.27;;
10517;SDS011;5307;42.548;22.968;2022-12-05T00:33:33;29.80;;;16.23;;
10517;SDS011;5307;42.548;22.968;2022-12-05T00:36:01;28.80;;;16.48;;
10517;SDS011;5307;42.548;22.968;2022-12-05T00:38:29;33.88;;;17.50;;
10517;SDS011;5307;42.548;22.968;2022-12-05T00:40:55;44.58;;;19.35;;
10517;SDS011;5307;42.548;22.968;2022-12-05T00:43:27;35.80;;;17.60;;
10517;SDS011;5307;42.548;22.968;2022-12-05T00:45:54;37.03;;;18.23;;
10517;SDS011;5307;42.548;22.968;2022-12-05T00:48:22;35.35;;;17.35;;
10517;SDS011;5307;42.548;22.968;2022-12-05T00:50:49;32.55;;;17.63;;
10517;SDS011;5307;42.548;22.968;2022-12-05T00:53:16;30.85;;;17.02;;
10517;SDS011;5307;42.548;22.968;2022-12-05T00:55:42;31.88;;;17.25;;
10517;SDS011;5307;42.548;22.968;2022-12-05T00:58:09;33.13;;;17.30;;
10517;SDS011;5307;42.548;22.968;2022-12-05T01:00:36;37.85;;;16.83;;
10517;SDS011;5307;42.548;22.968;2022-12-05T01:03:03;27.50;;;14.23;;
10517;SDS011;5307;42.548;22.968;2022-12-05T01:05:32;29.95;;;14.80;;
10517;SDS011;5307;42.548;22.968;2022-12-05T01:07:59;31.13;;;15.00;;
10517;SDS011;5307;42.548;22.968;2022-12-05T01:10:26;28.55;;;14.07;;
10517;SDS011;5307;42.548;22.968;2022-12-05T01:12:53;22.83;;;13.05;;
10517;SDS011;5307;42.548;22.968;2022-12-05T01:15:19;26.25;;;13.27;;
10517;SDS011;5307;42.548;22.968;2022-12-05T01:17:46;26.08;;;14.23;;
10517;SDS011;5307;42.548;22.968;2022-12-05T01:20:13;27.40;;;13.55;;
10517;SDS011;5307;42.548;22.968;2022-12-05T01:22:41;26.13;;;13.57;;
10517;SDS011;5307;42.548;22.968;2022-12-05T01:25:08;30.70;;;14.65;;
10517;SDS011;5307;42.548;22.968;2022-12-05T01:27:35;27.30;;;14.07;;
10517;SDS011;5307;42.548;22.968;2022-12-05T01:30:02;29.90;;;14.70;;
10517;SDS011;5307;42.548;22.968;2022-12-05T01:32:30;23.50;;;13.35;;
10517;SDS011;5307;42.548;22.968;2022-12-05T01:34:57;31.20;;;14.52;;
10517;SDS011;5307;42.548;22.968;2022-12-05T01:37:24;23.13;;;12.82;;
10517;SDS011;5307;42.548;22.968;2022-12-05T01:39:52;29.80;;;12.93;;
10517;SDS011;5307;42.548;22.968;2022-12-05T01:42:19;26.23;;;14.35;;
10517;SDS011;5307;42.548;22.968;2022-12-05T01:45:03;26.65;;;14.55;;
10517;SDS011;5307;42.548;22.968;2022-12-05T01:47:33;26.88;;;14.73;;
10517;SDS011;5307;42.548;22.968;2022-12-05T01:50:02;28.60;;;14.27;;
10517;SDS011;5307;42.548;22.968;2022-12-05T01:52:30;26.88;;;14.75;;
10517;SDS011;5307;42.548;22.968;2022-12-05T01:55:02;26.10;;;14.48;;
10517;SDS011;5307;42.548;22.968;2022-12-05T01:57:32;24.55;;;13.75;;
10517;SDS011;5307;42.548;22.968;2022-12-05T02:00:02;27.10;;;14.02;;
10517;SDS011;5307;42.548;22.968;2022-12-05T02:02:34;24.08;;;13.15;;
10517;SDS011;5307;42.548;22.968;2022-12-05T02:05:02;23.50;;;13.20;;
10517;SDS011;5307;42.548;22.968;2022-12-05T02:07:31;25.13;;;13.18;;
10517;SDS011;5307;42.548;22.968;2022-12-05T02:10:01;25.63;;;13.50;;
10517;SDS011;5307;42.548;22.968;2022-12-05T02:12:28;22.65;;;12.63;;
10517;SDS011;5307;42.548;22.968;2022-12-05T02:15:02;22.75;;;12.52;;
10517;SDS011;5307;42.548;22.968;2022-12-05T02:17:39;26.42;;;13.00;;
10517;SDS011;5307;42.548;22.968;2022-12-05T02:20:22;24.73;;;12.70;;
10517;SDS011;5307;42.548;22.968;2022-12-05T02:23:02;24.80;;;13.45;;
10517;SDS011;5307;42.548;22.968;2022-12-05T02:25:50;25.55;;;13.80;;
10517;SDS011;5307;42.548;22.968;2022-12-05T02:28:45;26.73;;;13.25;;
10517;SDS011;5307;42.548;22.968;2022-12-05T02:31:33;24.08;;;12.90;;
10517;SDS011;5307;42.548;22.968;2022-12-05T02:34:09;25.95;;;13.57;;
10517;SDS011;5307;42.548;22.968;2022-12-05T02:36:46;26.10;;;13.55;;
10517;SDS011;5307;42.548;22.968;2022-12-05T02:39:20;23.52;;;13.43;;
10517;SDS011;5307;42.548;22.968;2022-12-05T02:41:54;27.00;;;14.60;;
10517;SDS011;5307;42.548;22.968;2022-12-05T02:44:28;24.15;;;13.10;;
10517;SDS011;5307;42.548;22.968;2022-12-05T02:47:02;26.17;;;13.40;;
10517;SDS011;5307;42.548;22.968;2022-12-05T02:49:34;30.25;;;14.15;;
10517;SDS011;5307;42.548;22.968;2022-12-05T02:52:03;28.13;;;13.80;;
10517;SDS011;5307;42.548;22.968;2022-12-05T02:54:35;22.95;;;13.60;;
10517;SDS011;5307;42.548;22.968;2022-12-05T02:57:06;24.55;;;13.75;;
10517;SDS011;5307;42.548;22.968;2022-12-05T02:59:35;28.77;;;13.75;;
10517;SDS011;5307;42.548;22.968;2022-12-05T03:02:03;25.23;;;13.75;;
10517;SDS011;5307;42.548;22.968;2022-12-05T03:04:30;26.77;;;14.20;;
10517;SDS011;5307;42.548;22.968;2022-12-05T03:06:58;30.40;;;14.45;;
10517;SDS011;5307;42.548;22.968;2022-12-05T03:09:29;32.58;;;16.67;;
10517;SDS011;5307;42.548;22.968;2022-12-05T03:12:03;32.20;;;14.77;;
10517;SDS011;5307;42.548;22.968;2022-12-05T03:14:39;24.80;;;13.95;;
10517;SDS011;5307;42.548;22.968;2022-12-05T03:17:12;28.38;;;14.65;;
10517;SDS011;5307;42.548;22.968;2022-12-05T03:19:47;27.95;;;14.55;;
10517;SDS011;5307;42.548;22.968;2022-12-05T03:22:19;32.28;;;17.23;;
10517;SDS011;5307;42.548;22.968;2022-12-05T03:24:53;26.77;;;14.20;;
10517;SDS011;5307;42.548;22.968;2022-12-05T03:27:21;27.73;;;14.25;;
10517;SDS011;5307;42.548;22.968;2022-12-05T03:29:53;31.38;;;14.77;;
10517;SDS011;5307;42.548;22.968;2022-12-05T03:32:28;30.58;;;15.43;;
10517;SDS011;5307;42.548;22.968;2022-12-05T03:35:02;31.48;;;15.15;;
10517;SDS011;5307;42.548;22.968;2022-12-05T03:37:36;28.75;;;15.25;;
10517;SDS011;5307;42.548;22.968;2022-12-05T03:40:11;25.17;;;14.48;;
10517;SDS011;5307;42.548;22.968;2022-12-05T03:42:49;28.65;;;14.63;;
10517;SDS011;5307;42.548;22.968;2022-12-05T03:45:26;35.42;;;18.10;;
10517;SDS011;5307;42.548;22.968;2022-12-05T03:48:02;37.72;;;17.40;;
10517;SDS011;5307;42.548;22.968;2022-12-05T03:50:33;54.33;;;21.17;;
10517;SDS011;5307;42.548;22.968;2022-12-05T03:53:04;43.90;;;15.07;;
10517;SDS011;5307;42.548;22.968;2022-12-05T03:55:35;29.77;;;15.00;;
10517;SDS011;5307;42.548;22.968;2022-12-05T03:58:06;31.67;;;15.43;;
10517;SDS011;5307;42.548;22.968;2022-12-05T04:00:36;24.33;;;14.45;;
10517;SDS011;5307;42.548;22.968;2022-12-05T04:03:08;34.60;;;18.20;;
10517;SDS011;5307;42.548;22.968;2022-12-05T04:05:38;34.15;;;18.30;;
10517;SDS011;5307;42.548;22.968;2022-12-05T04:08:10;33.13;;;17.17;;
10517;SDS011;5307;42.548;22.968;2022-12-05T04:10:39;32.47;;;16.45;;
10517;SDS011;5307;42.548;22.968;2022-12-05T04:13:15;30.73;;;17.92;;
10517;SDS011;5307;42.548;22.968;2022-12-05T04:15:47;30.20;;;16.38;;
10517;SDS011;5307;42.548;22.968;2022-12-05T04:18:36;26.10;;;14.27;;
10517;SDS011;5307;42.548;22.968;2022-12-05T04:21:07;27.77;;;14.18;;
10517;SDS011;5307;42.548;22.968;2022-12-05T04:23:54;23.33;;;12.40;;
10517;SDS011;5307;42.548;22.968;2022-12-05T04:26:34;29.77;;;12.20;;
10517;SDS011;5307;42.548;22.968;2022-12-05T04:29:08;20.35;;;11.40;;
10517;SDS011;5307;42.548;22.968;2022-12-05T04:31:43;20.45;;;11.07;;
10517;SDS011;5307;42.548;22.968;2022-12-05T04:34:16;20.75;;;11.00;;
10517;SDS011;5307;42.548;22.968;2022-12-05T04:36:48;19.80;;;11.27;;
10517;SDS011;5307;42.548;22.968;2022-12-05T04:39:22;19.45;;;11.10;;
10517;SDS011;5307;42.548;22.968;2022-12-05T04:42:07;20.48;;;11.52;;
10517;SDS011;5307;42.548;22.968;2022-12-05T04:47:38;17.95;;;10.10;;
10517;SDS011;5307;42.548;22.968;2022-12-05T04:50:10;17.00;;;10.32;;
10517;SDS011;5307;42.548;22.968;2022-12-05T04:52:40;22.63;;;12.32;;
10517;SDS011;5307;42.548;22.968;2022-12-05T04:55:10;22.30;;;12.55;;
10517;SDS011;5307;42.548;22.968;2022-12-05T04:57:39;27.20;;;12.88;;
10517;SDS011;5307;42.548;22.968;2022-12-05T05:00:13;28.00;;;14.15;;
10517;SDS011;5307;42.548;22.968;2022-12-05T05:02:42;27.50;;;14.35;;
10517;SDS011;5307;42.548;22.968;2022-12-05T05:05:14;25.30;;;12.70;;
10517;SDS011;5307;42.548;22.968;2022-12-05T05:07:44;21.83;;;11.65;;
10517;SDS011;5307;42.548;22.968;2022-12-05T05:10:14;20.00;;;11.32;;
10517;SDS011;5307;42.548;22.968;2022-12-05T05:12:48;21.63;;;12.60;;
10517;SDS011;5307;42.548;22.968;2022-12-05T05:15:15;26.33;;;13.23;;
10517;SDS011;5307;42.548;22.968;2022-12-05T05:17:41;19.40;;;11.43;;
10517;SDS011;5307;42.548;22.968;2022-12-05T05:20:09;22.25;;;12.45;;
10517;SDS011;5307;42.548;22.968;2022-12-05T05:25:50;26.65;;;14.80;;
10517;SDS011;5307;42.548;22.968;2022-12-05T05:34:48;44.47;;;18.38;;
10517;SDS011;5307;42.548;22.968;2022-12-05T05:43:53;37.67;;;19.98;;
10517;SDS011;5307;42.548;22.968;2022-12-05T05:46:22;42.53;;;21.13;;
10517;SDS011;5307;42.548;22.968;2022-12-05T05:48:51;40.30;;;19.60;;
10517;SDS011;5307;42.548;22.968;2022-12-05T05:51:18;33.25;;;17.98;;
10517;SDS011;5307;42.548;22.968;2022-12-05T05:53:46;36.72;;;18.75;;
10517;SDS011;5307;42.548;22.968;2022-12-05T05:56:14;35.80;;;19.35;;
10517;SDS011;5307;42.548;22.968;2022-12-05T05:58:43;40.22;;;20.80;;
10517;SDS011;5307;42.548;22.968;2022-12-05T06:01:12;44.38;;;21.35;;
10517;SDS011;5307;42.548;22.968;2022-12-05T06:03:41;39.80;;;20.48;;
10517;SDS011;5307;42.548;22.968;2022-12-05T06:06:09;37.47;;;19.88;;
10517;SDS011;5307;42.548;22.968;2022-12-05T06:08:38;35.90;;;20.83;;
10517;SDS011;5307;42.548;22.968;2022-12-05T06:11:07;50.33;;;23.95;;
10517;SDS011;5307;42.548;22.968;2022-12-05T06:13:35;51.00;;;25.27;;
10517;SDS011;5307;42.548;22.968;2022-12-05T06:16:03;41.50;;;20.80;;
10517;SDS011;5307;42.548;22.968;2022-12-05T06:18:32;47.30;;;20.95;;
10517;SDS011;5307;42.548;22.968;2022-12-05T06:20:59;43.30;;;21.17;;
10517;SDS011;5307;42.548;22.968;2022-12-05T06:23:28;46.28;;;19.55;;
10517;SDS011;5307;42.548;22.968;2022-12-05T06:25:55;33.35;;;18.17;;
10517;SDS011;5307;42.548;22.968;2022-12-05T06:28:22;34.67;;;18.00;;
10517;SDS011;5307;42.548;22.968;2022-12-05T06:30:51;37.40;;;19.40;;
10517;SDS011;5307;42.548;22.968;2022-12-05T06:33:18;37.78;;;19.88;;
10517;SDS011;5307;42.548;22.968;2022-12-05T06:35:47;58.38;;;27.63;;
10517;SDS011;5307;42.548;22.968;2022-12-05T06:38:14;64.05;;;29.15;;
10517;SDS011;5307;42.548;22.968;2022-12-05T06:40:41;55.85;;;29.30;;
10517;SDS011;5307;42.548;22.968;2022-12-05T06:43:08;54.53;;;28.40;;
10517;SDS011;5307;42.548;22.968;2022-12-05T06:45:36;52.60;;;25.67;;
10517;SDS011;5307;42.548;22.968;2022-12-05T06:48:03;49.60;;;25.50;;
10517;SDS011;5307;42.548;22.968;2022-12-05T06:50:30;55.80;;;26.83;;
10517;SDS011;5307;42.548;22.968;2022-12-05T06:52:58;71.63;;;31.08;;
10517;SDS011;5307;42.548;22.968;2022-12-05T06:55:25;51.42;;;25.45;;
10517;SDS011;5307;42.548;22.968;2022-12-05T06:57:52;46.42;;;23.00;;
10517;SDS011;5307;42.548;22.968;2022-12-05T07:00:19;36.58;;;20.42;;
10517;SDS011;5307;42.548;22.968;2022-12-05T07:03:03;42.42;;;22.90;;
10517;SDS011;5307;42.548;22.968;2022-12-05T07:05:31;41.15;;;23.17;;
10517;SDS011;5307;42.548;22.968;2022-12-05T07:07:59;42.88;;;23.50;;
10517;SDS011;5307;42.548;22.968;2022-12-05T07:10:26;54.40;;;28.75;;
10517;SDS011;5307;42.548;22.968;2022-12-05T07:12:53;48.15;;;25.30;;
10517;SDS011;5307;42.548;22.968;2022-12-05T07:15:20;49.00;;;26.45;;
10517;SDS011;5307;42.548;22.968;2022-12-05T07:17:47;57.50;;;28.30;;
10517;SDS011;5307;42.548;22.968;2022-12-05T07:20:14;60.13;;;28.77;;
10517;SDS011;5307;42.548;22.968;2022-12-05T07:22:42;63.63;;;31.60;;
10517;SDS011;5307;42.548;22.968;2022-12-05T07:25:11;45.17;;;24.60;;
10517;SDS011;5307;42.548;22.968;2022-12-05T07:27:37;51.30;;;25.08;;
10517;SDS011;5307;42.548;22.968;2022-12-05T07:30:06;39.80;;;22.30;;
10517;SDS011;5307;42.548;22.968;2022-12-05T07:32:33;43.28;;;23.60;;
10517;SDS011;5307;42.548;22.968;2022-12-05T07:35:00;44.42;;;24.17;;
10517;SDS011;5307;42.548;22.968;2022-12-05T07:37:27;37.83;;;18.15;;
10517;SDS011;5307;42.548;22.968;2022-12-05T07:39:53;28.33;;;15.60;;
10517;SDS011;5307;42.548;22.968;2022-12-05T07:42:22;59.42;;;25.60;;
10517;SDS011;5307;42.548;22.968;2022-12-05T07:44:48;39.88;;;18.88;;
10517;SDS011;5307;42.548;22.968;2022-12-05T07:47:15;35.63;;;18.67;;
10517;SDS011;5307;42.548;22.968;2022-12-05T07:49:42;38.60;;;17.33;;
10517;SDS011;5307;42.548;22.968;2022-12-05T07:52:09;46.42;;;22.00;;
10517;SDS011;5307;42.548;22.968;2022-12-05T07:54:36;101.85;;;40.08;;
10517;SDS011;5307;42.548;22.968;2022-12-05T07:57:02;51.90;;;25.80;;
10517;SDS011;5307;42.548;22.968;2022-12-05T07:59:31;45.03;;;21.10;;
10517;SDS011;5307;42.548;22.968;2022-12-05T08:01:58;47.88;;;23.60;;
10517;SDS011;5307;42.548;22.968;2022-12-05T08:07:59;45.13;;;18.98;;
10517;SDS011;5307;42.548;22.968;2022-12-05T08:10:26;44.72;;;20.70;;
10517;SDS011;5307;42.548;22.968;2022-12-05T08:12:53;32.42;;;17.23;;
10517;SDS011;5307;42.548;22.968;2022-12-05T08:15:21;35.50;;;17.75;;
10517;SDS011;5307;42.548;22.968;2022-12-05T08:17:48;40.38;;;20.42;;
10517;SDS011;5307;42.548;22.968;2022-12-05T08:20:15;35.38;;;17.63;;
10517;SDS011;5307;42.548;22.968;2022-12-05T08:22:42;35.88;;;17.92;;
10517;SDS011;5307;42.548;22.968;2022-12-05T08:25:09;44.65;;;23.05;;
10517;SDS011;5307;42.548;22.968;2022-12-05T08:27:36;45.70;;;24.30;;
10517;SDS011;5307;42.548;22.968;2022-12-05T08:30:03;41.85;;;20.10;;
10517;SDS011;5307;42.548;22.968;2022-12-05T08:32:32;55.70;;;24.25;;
10517;SDS011;5307;42.548;22.968;2022-12-05T08:34:59;56.10;;;25.90;;
10517;SDS011;5307;42.548;22.968;2022-12-05T08:37:26;66.25;;;33.08;;
10517;SDS011;5307;42.548;22.968;2022-12-05T08:39:53;54.20;;;24.92;;
10517;SDS011;5307;42.548;22.968;2022-12-05T08:42:20;55.30;;;28.83;;
10517;SDS011;5307;42.548;22.968;2022-12-05T08:44:46;39.90;;;21.27;;
10517;SDS011;5307;42.548;22.968;2022-12-05T08:47:15;57.03;;;26.88;;
10517;SDS011;5307;42.548;22.968;2022-12-05T08:49:43;40.42;;;19.50;;
10517;SDS011;5307;42.548;22.968;2022-12-05T08:52:10;38.88;;;20.40;;
10517;SDS011;5307;42.548;22.968;2022-12-05T08:54:37;45.22;;;20.52;;
10517;SDS011;5307;42.548;22.968;2022-12-05T08:57:04;43.42;;;21.23;;
10517;SDS011;5307;42.548;22.968;2022-12-05T08:59:31;34.65;;;17.98;;
10517;SDS011;5307;42.548;22.968;2022-12-05T09:01:58;35.55;;;17.23;;
10517;SDS011;5307;42.548;22.968;2022-12-05T09:04:24;37.08;;;17.98;;
10517;SDS011;5307;42.548;22.968;2022-12-05T09:06:52;28.60;;;17.17;;
10517;SDS011;5307;42.548;22.968;2022-12-05T09:09:19;45.97;;;20.95;;
10517;SDS011;5307;42.548;22.968;2022-12-05T09:11:46;42.45;;;21.40;;
10517;SDS011;5307;42.548;22.968;2022-12-05T09:14:15;46.15;;;21.33;;
10517;SDS011;5307;42.548;22.968;2022-12-05T09:16:42;53.67;;;23.20;;
10517;SDS011;5307;42.548;22.968;2022-12-05T09:19:11;41.25;;;20.55;;
10517;SDS011;5307;42.548;22.968;2022-12-05T09:21:39;33.63;;;18.17;;
10517;SDS011;5307;42.548;22.968;2022-12-05T09:24:08;41.20;;;17.48;;
10517;SDS011;5307;42.548;22.968;2022-12-05T09:26:36;32.80;;;18.38;;
10517;SDS011;5307;42.548;22.968;2022-12-05T09:29:03;39.45;;;17.27;;
10517;SDS011;5307;42.548;22.968;2022-12-05T09:31:29;32.97;;;17.83;;
10517;SDS011;5307;42.548;22.968;2022-12-05T09:33:57;33.53;;;18.73;;
10517;SDS011;5307;42.548;22.968;2022-12-05T09:36:24;34.22;;;17.15;;
10517;SDS011;5307;42.548;22.968;2022-12-05T09:38:53;41.88;;;19.20;;
10517;SDS011;5307;42.548;22.968;2022-12-05T09:41:26;31.67;;;15.30;;
10517;SDS011;5307;42.548;22.968;2022-12-05T09:44:24;27.60;;;15.27;;
10517;SDS011;5307;42.548;22.968;2022-12-05T09:47:08;20.45;;;12.15;;
10517;SDS011;5307;42.548;22.968;2022-12-05T09:49:56;22.67;;;10.98;;
10517;SDS011;5307;42.548;22.968;2022-12-05T09:52:28;32.13;;;16.10;;
10517;SDS011;5307;42.548;22.968;2022-12-05T09:54:57;26.58;;;12.60;;
10517;SDS011;5307;42.548;22.968;2022-12-05T09:57:31;24.05;;;12.30;;
10517;SDS011;5307;42.548;22.968;2022-12-05T10:00:04;21.70;;;11.85;;
10517;SDS011;5307;42.548;22.968;2022-12-05T10:02:35;24.08;;;11.43;;
10517;SDS011;5307;42.548;22.968;2022-12-05T10:05:10;26.25;;;12.73;;
10517;SDS011;5307;42.548;22.968;2022-12-05T10:07:43;22.85;;;11.38;;
10517;SDS011;5307;42.548;22.968;2022-12-05T10:10:20;26.92;;;13.20;;
10517;SDS011;5307;42.548;22.968;2022-12-05T10:13:06;24.42;;;12.93;;
10517;SDS011;5307;42.548;22.968;2022-12-05T10:15:43;23.17;;;13.23;;
10517;SDS011;5307;42.548;22.968;2022-12-05T10:18:17;24.45;;;13.48;;
10517;SDS011;5307;42.548;22.968;2022-12-05T10:20:54;24.20;;;11.38;;
10517;SDS011;5307;42.548;22.968;2022-12-05T10:23:25;20.63;;;11.07;;
10517;SDS011;5307;42.548;22.968;2022-12-05T10:25:55;23.20;;;11.82;;
10517;SDS011;5307;42.548;22.968;2022-12-05T10:28:27;25.27;;;12.65;;
10517;SDS011;5307;42.548;22.968;2022-12-05T10:30:59;25.17;;;12.10;;
10517;SDS011;5307;42.548;22.968;2022-12-05T10:33:34;31.50;;;14.18;;
10517;SDS011;5307;42.548;22.968;2022-12-05T10:36:08;25.25;;;11.07;;
10517;SDS011;5307;42.548;22.968;2022-12-05T10:38:36;28.55;;;13.82;;
10517;SDS011;5307;42.548;22.968;2022-12-05T10:41:04;42.47;;;19.88;;
10517;SDS011;5307;42.548;22.968;2022-12-05T10:47:09;30.08;;;14.75;;
10517;SDS011;5307;42.548;22.968;2022-12-05T10:49:37;35.83;;;17.45;;
10517;SDS011;5307;42.548;22.968;2022-12-05T10:52:05;28.92;;;13.55;;
10517;SDS011;5307;42.548;22.968;2022-12-05T10:54:34;36.38;;;18.63;;
10517;SDS011;5307;42.548;22.968;2022-12-05T10:57:18;117.97;;;47.78;;
10517;SDS011;5307;42.548;22.968;2022-12-05T10:59:47;46.78;;;22.05;;
10517;SDS011;5307;42.548;22.968;2022-12-05T11:02:20;34.83;;;17.63;;
10517;SDS011;5307;42.548;22.968;2022-12-05T11:04:50;38.97;;;19.45;;
10517;SDS011;5307;42.548;22.968;2022-12-05T11:07:25;46.92;;;20.60;;
10517;SDS011;5307;42.548;22.968;2022-12-05T11:09:55;46.08;;;23.38;;
10517;SDS011;5307;42.548;22.968;2022-12-05T11:12:23;39.83;;;20.05;;
10517;SDS011;5307;42.548;22.968;2022-12-05T11:14:53;35.45;;;14.48;;
10517;SDS011;5307;42.548;22.968;2022-12-05T11:17:34;27.95;;;12.45;;
10517;SDS011;5307;42.548;22.968;2022-12-05T11:20:11;34.38;;;16.45;;
10517;SDS011;5307;42.548;22.968;2022-12-05T11:23:04;33.53;;;18.58;;
10517;SDS011;5307;42.548;22.968;2022-12-05T11:25:42;34.17;;;14.98;;
10517;SDS011;5307;42.548;22.968;2022-12-05T11:28:21;42.88;;;20.88;;
10517;SDS011;5307;42.548;22.968;2022-12-05T11:30:56;42.42;;;23.27;;
10517;SDS011;5307;42.548;22.968;2022-12-05T11:33:26;45.38;;;24.02;;
10517;SDS011;5307;42.548;22.968;2022-12-05T11:35:55;38.90;;;21.63;;
10517;SDS011;5307;42.548;22.968;2022-12-05T11:38:27;31.15;;;15.02;;
10517;SDS011;5307;42.548;22.968;2022-12-05T11:40:58;31.13;;;15.25;;
10517;SDS011;5307;42.548;22.968;2022-12-05T11:43:40;28.15;;;14.95;;
10517;SDS011;5307;42.548;22.968;2022-12-05T11:46:32;33.22;;;15.18;;
10517;SDS011;5307;42.548;22.968;2022-12-05T11:49:18;30.45;;;16.08;;
10517;SDS011;5307;42.548;22.968;2022-12-05T11:51:55;34.92;;;15.45;;
10517;SDS011;5307;42.548;22.968;2022-12-05T11:54:37;53.13;;;24.92;;
10517;SDS011;5307;42.548;22.968;2022-12-05T11:57:22;34.40;;;15.93;;
10517;SDS011;5307;42.548;22.968;2022-12-05T12:00:03;37.63;;;17.40;;
10517;SDS011;5307;42.548;22.968;2022-12-05T12:02:40;34.03;;;15.82;;
10517;SDS011;5307;42.548;22.968;2022-12-05T12:05:36;33.50;;;15.07;;
10517;SDS011;5307;42.548;22.968;2022-12-05T12:08:12;27.52;;;14.20;;
10517;SDS011;5307;42.548;22.968;2022-12-05T12:10:48;39.25;;;15.93;;
10517;SDS011;5307;42.548;22.968;2022-12-05T12:13:23;39.88;;;21.83;;
10517;SDS011;5307;42.548;22.968;2022-12-05T12:16:05;35.95;;;18.15;;
10517;SDS011;5307;42.548;22.968;2022-12-05T12:18:47;36.33;;;16.40;;
10517;SDS011;5307;42.548;22.968;2022-12-05T12:21:27;34.83;;;17.52;;
10517;SDS011;5307;42.548;22.968;2022-12-05T12:24:10;33.05;;;16.55;;
10517;SDS011;5307;42.548;22.968;2022-12-05T12:26:47;23.08;;;11.75;;
10517;SDS011;5307;42.548;22.968;2022-12-05T12:29:29;29.98;;;14.32;;
10517;SDS011;5307;42.548;22.968;2022-12-05T12:32:10;27.92;;;13.95;;
10517;SDS011;5307;42.548;22.968;2022-12-05T12:34:51;45.92;;;22.05;;
10517;SDS011;5307;42.548;22.968;2022-12-05T12:37:31;39.90;;;17.38;;
10517;SDS011;5307;42.548;22.968;2022-12-05T12:40:11;41.53;;;18.98;;
10517;SDS011;5307;42.548;22.968;2022-12-05T12:42:44;41.45;;;20.88;;
10517;SDS011;5307;42.548;22.968;2022-12-05T12:45:39;35.17;;;18.17;;
10517;SDS011;5307;42.548;22.968;2022-12-05T12:48:20;47.67;;;25.05;;
10517;SDS011;5307;42.548;22.968;2022-12-05T12:51:01;35.28;;;18.23;;
10517;SDS011;5307;42.548;22.968;2022-12-05T12:56:23;38.22;;;17.55;;
10517;SDS011;5307;42.548;22.968;2022-12-05T12:59:03;45.38;;;20.05;;
10517;SDS011;5307;42.548;22.968;2022-12-05T13:01:45;32.50;;;15.88;;
10517;SDS011;5307;42.548;22.968;2022-12-05T13:04:18;35.70;;;16.65;;
10517;SDS011;5307;42.548;22.968;2022-12-05T13:06:50;44.15;;;21.48;;
10517;SDS011;5307;42.548;22.968;2022-12-05T13:09:23;41.83;;;20.58;;
10517;SDS011;5307;42.548;22.968;2022-12-05T13:11:56;31.20;;;16.83;;
10517;SDS011;5307;42.548;22.968;2022-12-05T13:14:30;34.60;;;15.57;;
10517;SDS011;5307;42.548;22.968;2022-12-05T13:17:00;32.08;;;16.33;;
10517;SDS011;5307;42.548;22.968;2022-12-05T13:19:28;32.88;;;15.52;;
10517;SDS011;5307;42.548;22.968;2022-12-05T13:22:02;33.00;;;17.70;;
10517;SDS011;5307;42.548;22.968;2022-12-05T13:24:42;37.05;;;17.13;;
10517;SDS011;5307;42.548;22.968;2022-12-05T13:27:13;38.15;;;17.63;;
10517;SDS011;5307;42.548;22.968;2022-12-05T13:29:48;32.72;;;16.83;;
10517;SDS011;5307;42.548;22.968;2022-12-05T13:32:24;40.03;;;20.38;;
10517;SDS011;5307;42.548;22.968;2022-12-05T13:34:54;39.70;;;18.38;;
10517;SDS011;5307;42.548;22.968;2022-12-05T13:37:23;41.67;;;19.58;;
10517;SDS011;5307;42.548;22.968;2022-12-05T13:40:23;76.93;;;32.53;;
10517;SDS011;5307;42.548;22.968;2022-12-05T13:43:09;38.10;;;18.30;;
10517;SDS011;5307;42.548;22.968;2022-12-05T13:45:39;46.47;;;22.75;;
10517;SDS011;5307;42.548;22.968;2022-12-05T13:48:18;88.05;;;41.25;;
10517;SDS011;5307;42.548;22.968;2022-12-05T13:50:49;96.25;;;41.42;;
10517;SDS011;5307;42.548;22.968;2022-12-05T13:53:30;116.40;;;47.00;;
10517;SDS011;5307;42.548;22.968;2022-12-05T13:56:04;105.65;;;40.03;;
10517;SDS011;5307;42.548;22.968;2022-12-05T13:58:48;49.70;;;24.35;;
10517;SDS011;5307;42.548;22.968;2022-12-05T14:10:03;78.88;;;34.45;;
10517;SDS011;5307;42.548;22.968;2022-12-05T14:13:35;124.47;;;49.72;;
10517;SDS011;5307;42.548;22.968;2022-12-05T14:19:11;95.60;;;37.92;;
10517;SDS011;5307;42.548;22.968;2022-12-05T14:21:47;71.75;;;32.45;;
10517;SDS011;5307;42.548;22.968;2022-12-05T14:24:25;42.53;;;18.85;;
10517;SDS011;5307;42.548;22.968;2022-12-05T14:27:00;52.20;;;22.63;;
10517;SDS011;5307;42.548;22.968;2022-12-05T14:29:36;35.22;;;17.42;;
10517;SDS011;5307;42.548;22.968;2022-12-05T14:32:17;86.65;;;38.35;;
10517;SDS011;5307;42.548;22.968;2022-12-05T14:34:52;105.97;;;43.53;;
10517;SDS011;5307;42.548;22.968;2022-12-05T14:37:26;94.53;;;38.60;;
10517;SDS011;5307;42.548;22.968;2022-12-05T14:39:55;40.15;;;19.08;;
10517;SDS011;5307;42.548;22.968;2022-12-05T14:42:30;52.08;;;24.70;;
10517;SDS011;5307;42.548;22.968;2022-12-05T14:45:16;54.05;;;24.98;;
10517;SDS011;5307;42.548;22.968;2022-12-05T14:47:50;66.85;;;28.95;;
10517;SDS011;5307;42.548;22.968;2022-12-05T14:50:21;44.17;;;21.25;;
10517;SDS011;5307;42.548;22.968;2022-12-05T14:53:19;100.35;;;43.47;;
10517;SDS011;5307;42.548;22.968;2022-12-05T14:55:51;93.50;;;40.47;;
10517;SDS011;5307;42.548;22.968;2022-12-05T14:58:21;56.75;;;26.85;;
10517;SDS011;5307;42.548;22.968;2022-12-05T15:00:58;95.18;;;41.80;;
10517;SDS011;5307;42.548;22.968;2022-12-05T15:03:29;116.45;;;49.85;;
10517;SDS011;5307;42.548;22.968;2022-12-05T15:05:59;117.85;;;53.35;;
10517;SDS011;5307;42.548;22.968;2022-12-05T15:08:29;97.07;;;44.90;;
10517;SDS011;5307;42.548;22.968;2022-12-05T15:11:03;41.80;;;20.10;;
10517;SDS011;5307;42.548;22.968;2022-12-05T15:13:30;55.50;;;29.42;;
10517;SDS011;5307;42.548;22.968;2022-12-05T15:15:59;68.95;;;35.40;;
10517;SDS011;5307;42.548;22.968;2022-12-05T15:18:33;68.85;;;31.88;;
10517;SDS011;5307;42.548;22.968;2022-12-05T15:21:06;47.50;;;23.17;;
10517;SDS011;5307;42.548;22.968;2022-12-05T15:23:36;65.70;;;34.15;;
10517;SDS011;5307;42.548;22.968;2022-12-05T15:26:04;55.50;;;30.33;;
10517;SDS011;5307;42.548;22.968;2022-12-05T15:28:43;66.18;;;34.22;;
10517;SDS011;5307;42.548;22.968;2022-12-05T15:31:27;50.53;;;29.10;;
10517;SDS011;5307;42.548;22.968;2022-12-05T15:33:57;60.20;;;29.85;;
10517;SDS011;5307;42.548;22.968;2022-12-05T15:36:28;47.55;;;22.08;;